sensor_id;sensor_type;location;lat;lon;timestamp;P1;durP1;ratioP1;P2;durP2;ratioP2
15246;SDS011;7726;48.820;9.248;2022-12-19T00:00:40;32.13;;;16.63;;
15246;SDS011;7726;48.820;9.248;2022-12-19T00:03:09;27.47;;;15.60;;
15246;SDS011;7726;48.820;9.248;2022-12-19T00:05:36;31.40;;;17.83;;
15246;SDS011;7726;48.820;9.248;2022-12-19T00:08:04;28.30;;;17.73;;
15246;SDS011;7726;48.820;9.248;2022-12-19T00:10:31;31.70;;;17.00;;
15246;SDS011;7726;48.820;9.248;2022-12-19T00:12:58;29.63;;;17.17;;
15246;SDS011;7726;48.820;9.248;2022-12-19T00:15:25;31.80;;;17.43;;
15246;SDS011;7726;48.820;9.248;2022-12-19T00:17:53;30.37;;;16.63;;
15246;SDS011;7726;48.820;9.248;2022-12-19T00:20:21;29.93;;;17.27;;
15246;SDS011;7726;48.820;9.248;2022-12-19T00:22:48;28.17;;;16.77;;
15246;SDS011;7726;48.820;9.248;2022-12-19T00:25:15;32.13;;;16.57;;
15246;SDS011;7726;48.820;9.248;2022-12-19T00:27:50;30.13;;;17.20;;
15246;SDS011;7726;48.820;9.248;2022-12-19T00:30:17;31.03;;;16.40;;
15246;SDS011;7726;48.820;9.248;2022-12-19T00:32:44;28.17;;;16.03;;
15246;SDS011;7726;48.820;9.248;2022-12-19T00:35:11;29.40;;;16.07;;
15246;SDS011;7726;48.820;9.248;2022-12-19T00:37:40;29.77;;;16.63;;
15246;SDS011;7726;48.820;9.248;2022-12-19T00:40:08;30.93;;;16.40;;
15246;SDS011;7726;48.820;9.248;2022-12-19T00:42:35;27.43;;;15.67;;
15246;SDS011;7726;48.820;9.248;2022-12-19T00:45:02;31.13;;;17.70;;
15246;SDS011;7726;48.820;9.248;2022-12-19T00:47:30;32.33;;;17.23;;
15246;SDS011;7726;48.820;9.248;2022-12-19T00:49:57;37.47;;;18.20;;
15246;SDS011;7726;48.820;9.248;2022-12-19T00:52:24;34.20;;;17.43;;
15246;SDS011;7726;48.820;9.248;2022-12-19T00:54:52;37.07;;;17.03;;
15246;SDS011;7726;48.820;9.248;2022-12-19T00:57:20;28.30;;;15.93;;
15246;SDS011;7726;48.820;9.248;2022-12-19T00:59:47;27.63;;;15.63;;
15246;SDS011;7726;48.820;9.248;2022-12-19T01:02:14;27.23;;;15.50;;
15246;SDS011;7726;48.820;9.248;2022-12-19T01:04:41;27.90;;;16.17;;
15246;SDS011;7726;48.820;9.248;2022-12-19T01:07:08;29.10;;;16.37;;
15246;SDS011;7726;48.820;9.248;2022-12-19T01:09:35;27.20;;;16.23;;
15246;SDS011;7726;48.820;9.248;2022-12-19T01:12:04;31.10;;;17.50;;
15246;SDS011;7726;48.820;9.248;2022-12-19T01:14:50;27.93;;;16.17;;
15246;SDS011;7726;48.820;9.248;2022-12-19T01:17:18;27.27;;;15.60;;
15246;SDS011;7726;48.820;9.248;2022-12-19T01:19:45;27.57;;;15.63;;
15246;SDS011;7726;48.820;9.248;2022-12-19T01:22:12;29.73;;;15.83;;
15246;SDS011;7726;48.820;9.248;2022-12-19T01:24:39;30.00;;;15.87;;
15246;SDS011;7726;48.820;9.248;2022-12-19T01:27:08;27.97;;;15.63;;
15246;SDS011;7726;48.820;9.248;2022-12-19T01:29:35;26.93;;;16.03;;
15246;SDS011;7726;48.820;9.248;2022-12-19T01:32:02;27.67;;;15.57;;
15246;SDS011;7726;48.820;9.248;2022-12-19T01:34:29;26.67;;;15.53;;
15246;SDS011;7726;48.820;9.248;2022-12-19T01:36:56;26.23;;;15.67;;
15246;SDS011;7726;48.820;9.248;2022-12-19T01:39:25;27.57;;;15.87;;
15246;SDS011;7726;48.820;9.248;2022-12-19T01:41:52;28.40;;;16.47;;
15246;SDS011;7726;48.820;9.248;2022-12-19T01:44:22;30.00;;;17.00;;
15246;SDS011;7726;48.820;9.248;2022-12-19T01:46:50;31.47;;;17.77;;
15246;SDS011;7726;48.820;9.248;2022-12-19T01:49:19;35.97;;;19.07;;
15246;SDS011;7726;48.820;9.248;2022-12-19T01:51:47;31.87;;;18.57;;
15246;SDS011;7726;48.820;9.248;2022-12-19T01:54:18;35.83;;;20.50;;
15246;SDS011;7726;48.820;9.248;2022-12-19T01:56:46;35.70;;;19.30;;
15246;SDS011;7726;48.820;9.248;2022-12-19T01:59:15;32.70;;;18.77;;
15246;SDS011;7726;48.820;9.248;2022-12-19T02:01:45;32.90;;;19.20;;
15246;SDS011;7726;48.820;9.248;2022-12-19T02:04:12;32.47;;;20.03;;
15246;SDS011;7726;48.820;9.248;2022-12-19T02:06:39;31.33;;;18.53;;
15246;SDS011;7726;48.820;9.248;2022-12-19T02:09:07;33.57;;;18.13;;
15246;SDS011;7726;48.820;9.248;2022-12-19T02:11:35;33.40;;;17.57;;
15246;SDS011;7726;48.820;9.248;2022-12-19T02:14:02;32.50;;;17.53;;
15246;SDS011;7726;48.820;9.248;2022-12-19T02:16:32;28.73;;;16.87;;
15246;SDS011;7726;48.820;9.248;2022-12-19T02:19:11;31.40;;;17.80;;
15246;SDS011;7726;48.820;9.248;2022-12-19T02:21:43;30.90;;;17.97;;
15246;SDS011;7726;48.820;9.248;2022-12-19T02:24:25;36.33;;;18.80;;
15246;SDS011;7726;48.820;9.248;2022-12-19T02:27:05;33.33;;;19.13;;
15246;SDS011;7726;48.820;9.248;2022-12-19T02:29:50;31.87;;;17.87;;
15246;SDS011;7726;48.820;9.248;2022-12-19T02:32:23;30.07;;;18.90;;
15246;SDS011;7726;48.820;9.248;2022-12-19T02:34:55;30.77;;;17.73;;
15246;SDS011;7726;48.820;9.248;2022-12-19T02:37:25;36.20;;;19.20;;
15246;SDS011;7726;48.820;9.248;2022-12-19T02:39:54;34.87;;;19.87;;
15246;SDS011;7726;48.820;9.248;2022-12-19T02:42:24;32.17;;;20.50;;
15246;SDS011;7726;48.820;9.248;2022-12-19T02:44:53;32.73;;;20.53;;
15246;SDS011;7726;48.820;9.248;2022-12-19T02:47:31;36.00;;;19.67;;
15246;SDS011;7726;48.820;9.248;2022-12-19T02:49:58;30.73;;;19.20;;
15246;SDS011;7726;48.820;9.248;2022-12-19T02:52:43;31.57;;;18.67;;
15246;SDS011;7726;48.820;9.248;2022-12-19T02:55:12;33.87;;;19.40;;
15246;SDS011;7726;48.820;9.248;2022-12-19T02:57:44;29.67;;;18.00;;
15246;SDS011;7726;48.820;9.248;2022-12-19T03:00:16;30.97;;;18.27;;
15246;SDS011;7726;48.820;9.248;2022-12-19T03:02:46;30.67;;;18.57;;
15246;SDS011;7726;48.820;9.248;2022-12-19T03:05:19;31.60;;;18.07;;
15246;SDS011;7726;48.820;9.248;2022-12-19T03:07:49;32.00;;;17.90;;
15246;SDS011;7726;48.820;9.248;2022-12-19T03:10:21;34.10;;;18.70;;
15246;SDS011;7726;48.820;9.248;2022-12-19T03:12:52;28.40;;;17.40;;
15246;SDS011;7726;48.820;9.248;2022-12-19T03:15:20;29.67;;;17.83;;
15246;SDS011;7726;48.820;9.248;2022-12-19T03:17:49;31.83;;;17.73;;
15246;SDS011;7726;48.820;9.248;2022-12-19T03:20:18;29.20;;;16.87;;
15246;SDS011;7726;48.820;9.248;2022-12-19T03:22:48;30.23;;;17.10;;
15246;SDS011;7726;48.820;9.248;2022-12-19T03:25:15;27.80;;;17.80;;
15246;SDS011;7726;48.820;9.248;2022-12-19T03:27:42;28.43;;;17.37;;
15246;SDS011;7726;48.820;9.248;2022-12-19T03:30:11;30.30;;;17.63;;
15246;SDS011;7726;48.820;9.248;2022-12-19T03:32:39;29.37;;;17.40;;
15246;SDS011;7726;48.820;9.248;2022-12-19T03:35:10;28.23;;;17.40;;
15246;SDS011;7726;48.820;9.248;2022-12-19T03:37:40;31.27;;;17.33;;
15246;SDS011;7726;48.820;9.248;2022-12-19T03:40:08;31.20;;;18.03;;
15246;SDS011;7726;48.820;9.248;2022-12-19T03:42:36;29.23;;;17.03;;
15246;SDS011;7726;48.820;9.248;2022-12-19T03:45:24;30.90;;;16.63;;
15246;SDS011;7726;48.820;9.248;2022-12-19T03:47:54;28.83;;;18.03;;
15246;SDS011;7726;48.820;9.248;2022-12-19T03:50:24;28.50;;;17.43;;
15246;SDS011;7726;48.820;9.248;2022-12-19T03:52:57;28.83;;;18.00;;
15246;SDS011;7726;48.820;9.248;2022-12-19T03:55:28;28.23;;;16.77;;
15246;SDS011;7726;48.820;9.248;2022-12-19T03:57:56;28.37;;;16.97;;
15246;SDS011;7726;48.820;9.248;2022-12-19T04:00:25;29.87;;;17.20;;
15246;SDS011;7726;48.820;9.248;2022-12-19T04:02:53;30.37;;;17.07;;
15246;SDS011;7726;48.820;9.248;2022-12-19T04:05:24;29.07;;;17.13;;
15246;SDS011;7726;48.820;9.248;2022-12-19T04:07:52;27.73;;;17.60;;
15246;SDS011;7726;48.820;9.248;2022-12-19T04:10:21;27.83;;;16.83;;
15246;SDS011;7726;48.820;9.248;2022-12-19T04:12:52;31.77;;;16.97;;
15246;SDS011;7726;48.820;9.248;2022-12-19T04:15:20;29.87;;;16.47;;
15246;SDS011;7726;48.820;9.248;2022-12-19T04:17:56;27.43;;;16.03;;
15246;SDS011;7726;48.820;9.248;2022-12-19T04:20:26;30.00;;;16.83;;
15246;SDS011;7726;48.820;9.248;2022-12-19T04:22:55;29.37;;;16.00;;
15246;SDS011;7726;48.820;9.248;2022-12-19T04:25:25;28.07;;;16.27;;
15246;SDS011;7726;48.820;9.248;2022-12-19T04:27:54;28.77;;;15.93;;
15246;SDS011;7726;48.820;9.248;2022-12-19T04:30:23;29.30;;;17.27;;
15246;SDS011;7726;48.820;9.248;2022-12-19T04:32:50;29.13;;;16.90;;
15246;SDS011;7726;48.820;9.248;2022-12-19T04:35:17;27.33;;;15.50;;
15246;SDS011;7726;48.820;9.248;2022-12-19T04:37:46;28.07;;;16.03;;
15246;SDS011;7726;48.820;9.248;2022-12-19T04:40:13;28.70;;;16.07;;
15246;SDS011;7726;48.820;9.248;2022-12-19T04:42:40;28.53;;;16.27;;
15246;SDS011;7726;48.820;9.248;2022-12-19T04:45:07;30.80;;;16.40;;
15246;SDS011;7726;48.820;9.248;2022-12-19T04:47:34;27.67;;;16.90;;
15246;SDS011;7726;48.820;9.248;2022-12-19T04:50:02;26.33;;;15.47;;
15246;SDS011;7726;48.820;9.248;2022-12-19T04:52:29;26.90;;;15.57;;
15246;SDS011;7726;48.820;9.248;2022-12-19T04:54:57;26.10;;;15.63;;
15246;SDS011;7726;48.820;9.248;2022-12-19T04:57:26;27.07;;;15.73;;
15246;SDS011;7726;48.820;9.248;2022-12-19T04:59:54;25.20;;;15.60;;
15246;SDS011;7726;48.820;9.248;2022-12-19T05:02:21;27.77;;;15.33;;
15246;SDS011;7726;48.820;9.248;2022-12-19T05:04:48;26.33;;;14.83;;
15246;SDS011;7726;48.820;9.248;2022-12-19T05:07:15;31.10;;;16.33;;
15246;SDS011;7726;48.820;9.248;2022-12-19T05:09:45;27.33;;;14.70;;
15246;SDS011;7726;48.820;9.248;2022-12-19T05:12:14;25.17;;;14.90;;
15246;SDS011;7726;48.820;9.248;2022-12-19T05:14:41;27.77;;;14.73;;
15246;SDS011;7726;48.820;9.248;2022-12-19T05:17:08;25.43;;;14.77;;
15246;SDS011;7726;48.820;9.248;2022-12-19T05:19:35;22.47;;;13.77;;
15246;SDS011;7726;48.820;9.248;2022-12-19T05:22:02;24.13;;;15.47;;
15246;SDS011;7726;48.820;9.248;2022-12-19T05:24:30;26.07;;;15.23;;
15246;SDS011;7726;48.820;9.248;2022-12-19T05:26:57;27.03;;;15.60;;
15246;SDS011;7726;48.820;9.248;2022-12-19T05:29:25;24.57;;;14.83;;
15246;SDS011;7726;48.820;9.248;2022-12-19T05:31:52;24.23;;;14.60;;
15246;SDS011;7726;48.820;9.248;2022-12-19T05:34:19;23.07;;;14.63;;
15246;SDS011;7726;48.820;9.248;2022-12-19T05:36:47;25.47;;;15.17;;
15246;SDS011;7726;48.820;9.248;2022-12-19T05:39:14;27.27;;;15.37;;
15246;SDS011;7726;48.820;9.248;2022-12-19T05:41:41;31.53;;;16.00;;
15246;SDS011;7726;48.820;9.248;2022-12-19T05:44:08;24.40;;;15.40;;
15246;SDS011;7726;48.820;9.248;2022-12-19T05:46:37;24.23;;;15.10;;
15246;SDS011;7726;48.820;9.248;2022-12-19T05:49:04;24.77;;;15.33;;
15246;SDS011;7726;48.820;9.248;2022-12-19T05:51:31;26.47;;;15.30;;
15246;SDS011;7726;48.820;9.248;2022-12-19T05:53:58;28.23;;;15.17;;
15246;SDS011;7726;48.820;9.248;2022-12-19T05:56:26;26.50;;;15.43;;
15246;SDS011;7726;48.820;9.248;2022-12-19T05:58:53;22.43;;;14.50;;
15246;SDS011;7726;48.820;9.248;2022-12-19T06:01:21;25.90;;;15.07;;
15246;SDS011;7726;48.820;9.248;2022-12-19T06:03:49;25.00;;;15.03;;
15246;SDS011;7726;48.820;9.248;2022-12-19T06:06:17;27.67;;;15.40;;
15246;SDS011;7726;48.820;9.248;2022-12-19T06:08:45;28.40;;;15.37;;
15246;SDS011;7726;48.820;9.248;2022-12-19T06:11:12;25.10;;;15.50;;
15246;SDS011;7726;48.820;9.248;2022-12-19T06:13:40;25.97;;;16.70;;
15246;SDS011;7726;48.820;9.248;2022-12-19T06:16:08;28.27;;;16.47;;
15246;SDS011;7726;48.820;9.248;2022-12-19T06:18:36;28.20;;;15.97;;
15246;SDS011;7726;48.820;9.248;2022-12-19T06:21:06;25.77;;;16.10;;
15246;SDS011;7726;48.820;9.248;2022-12-19T06:23:34;27.67;;;16.03;;
15246;SDS011;7726;48.820;9.248;2022-12-19T06:26:02;26.63;;;16.17;;
15246;SDS011;7726;48.820;9.248;2022-12-19T06:28:30;26.13;;;15.90;;
15246;SDS011;7726;48.820;9.248;2022-12-19T06:30:57;24.23;;;15.37;;
15246;SDS011;7726;48.820;9.248;2022-12-19T06:33:24;25.40;;;15.03;;
15246;SDS011;7726;48.820;9.248;2022-12-19T06:35:55;26.33;;;15.63;;
15246;SDS011;7726;48.820;9.248;2022-12-19T06:38:24;26.93;;;15.60;;
15246;SDS011;7726;48.820;9.248;2022-12-19T06:40:52;25.43;;;14.70;;
15246;SDS011;7726;48.820;9.248;2022-12-19T06:43:36;24.30;;;14.80;;
15246;SDS011;7726;48.820;9.248;2022-12-19T06:46:03;28.10;;;16.33;;
15246;SDS011;7726;48.820;9.248;2022-12-19T06:48:30;27.40;;;15.90;;
15246;SDS011;7726;48.820;9.248;2022-12-19T06:50:57;27.80;;;17.00;;
15246;SDS011;7726;48.820;9.248;2022-12-19T06:53:26;31.07;;;17.20;;
15246;SDS011;7726;48.820;9.248;2022-12-19T06:55:54;28.23;;;16.80;;
15246;SDS011;7726;48.820;9.248;2022-12-19T06:58:21;30.10;;;16.70;;
15246;SDS011;7726;48.820;9.248;2022-12-19T07:00:49;24.90;;;15.20;;
15246;SDS011;7726;48.820;9.248;2022-12-19T07:03:17;27.13;;;15.77;;
15246;SDS011;7726;48.820;9.248;2022-12-19T07:05:45;26.27;;;16.23;;
15246;SDS011;7726;48.820;9.248;2022-12-19T07:08:12;26.43;;;15.57;;
15246;SDS011;7726;48.820;9.248;2022-12-19T07:10:41;29.03;;;15.93;;
15246;SDS011;7726;48.820;9.248;2022-12-19T07:13:08;25.73;;;15.83;;
15246;SDS011;7726;48.820;9.248;2022-12-19T07:15:35;29.70;;;16.87;;
15246;SDS011;7726;48.820;9.248;2022-12-19T07:18:03;27.00;;;15.80;;
15246;SDS011;7726;48.820;9.248;2022-12-19T07:20:31;27.43;;;15.77;;
15246;SDS011;7726;48.820;9.248;2022-12-19T07:23:00;24.63;;;15.23;;
15246;SDS011;7726;48.820;9.248;2022-12-19T07:25:27;28.13;;;15.10;;
15246;SDS011;7726;48.820;9.248;2022-12-19T07:27:56;26.00;;;15.30;;
15246;SDS011;7726;48.820;9.248;2022-12-19T07:30:23;26.07;;;15.60;;
15246;SDS011;7726;48.820;9.248;2022-12-19T07:32:50;25.63;;;15.60;;
15246;SDS011;7726;48.820;9.248;2022-12-19T07:35:17;28.17;;;15.70;;
15246;SDS011;7726;48.820;9.248;2022-12-19T07:37:48;24.77;;;14.37;;
15246;SDS011;7726;48.820;9.248;2022-12-19T07:40:16;22.50;;;14.27;;
15246;SDS011;7726;48.820;9.248;2022-12-19T07:42:43;24.57;;;14.47;;
15246;SDS011;7726;48.820;9.248;2022-12-19T07:45:11;26.53;;;14.83;;
15246;SDS011;7726;48.820;9.248;2022-12-19T07:47:38;22.47;;;13.93;;
15246;SDS011;7726;48.820;9.248;2022-12-19T07:50:06;21.17;;;13.60;;
15246;SDS011;7726;48.820;9.248;2022-12-19T07:52:33;24.13;;;14.30;;
15246;SDS011;7726;48.820;9.248;2022-12-19T07:55:00;23.37;;;13.70;;
15246;SDS011;7726;48.820;9.248;2022-12-19T07:57:27;24.50;;;14.80;;
15246;SDS011;7726;48.820;9.248;2022-12-19T07:59:54;22.00;;;13.30;;
15246;SDS011;7726;48.820;9.248;2022-12-19T08:02:23;22.70;;;13.77;;
15246;SDS011;7726;48.820;9.248;2022-12-19T08:04:50;21.70;;;13.20;;
15246;SDS011;7726;48.820;9.248;2022-12-19T08:07:17;22.33;;;13.23;;
15246;SDS011;7726;48.820;9.248;2022-12-19T08:09:44;21.63;;;13.20;;
15246;SDS011;7726;48.820;9.248;2022-12-19T08:12:11;22.27;;;13.50;;
15246;SDS011;7726;48.820;9.248;2022-12-19T08:14:38;21.00;;;13.30;;
15246;SDS011;7726;48.820;9.248;2022-12-19T08:17:05;23.70;;;13.80;;
15246;SDS011;7726;48.820;9.248;2022-12-19T08:19:34;21.27;;;13.30;;
15246;SDS011;7726;48.820;9.248;2022-12-19T08:22:01;19.43;;;12.30;;
15246;SDS011;7726;48.820;9.248;2022-12-19T08:24:29;21.43;;;12.77;;
15246;SDS011;7726;48.820;9.248;2022-12-19T08:26:56;20.63;;;12.80;;
15246;SDS011;7726;48.820;9.248;2022-12-19T08:29:23;21.10;;;12.97;;
15246;SDS011;7726;48.820;9.248;2022-12-19T08:31:50;20.27;;;12.40;;
15246;SDS011;7726;48.820;9.248;2022-12-19T08:34:17;20.27;;;12.60;;
15246;SDS011;7726;48.820;9.248;2022-12-19T08:36:45;18.20;;;12.20;;
15246;SDS011;7726;48.820;9.248;2022-12-19T08:39:13;21.07;;;13.20;;
15246;SDS011;7726;48.820;9.248;2022-12-19T08:41:40;20.10;;;12.03;;
15246;SDS011;7726;48.820;9.248;2022-12-19T08:44:09;18.83;;;12.50;;
15246;SDS011;7726;48.820;9.248;2022-12-19T08:46:36;19.93;;;13.00;;
15246;SDS011;7726;48.820;9.248;2022-12-19T08:49:04;19.93;;;12.60;;
15246;SDS011;7726;48.820;9.248;2022-12-19T08:51:31;20.40;;;12.37;;
15246;SDS011;7726;48.820;9.248;2022-12-19T08:54:00;19.20;;;12.33;;
15246;SDS011;7726;48.820;9.248;2022-12-19T08:56:27;18.03;;;12.43;;
15246;SDS011;7726;48.820;9.248;2022-12-19T08:58:54;19.07;;;12.47;;
15246;SDS011;7726;48.820;9.248;2022-12-19T09:01:21;19.27;;;12.60;;
15246;SDS011;7726;48.820;9.248;2022-12-19T09:03:49;19.13;;;12.17;;
15246;SDS011;7726;48.820;9.248;2022-12-19T09:06:17;22.07;;;12.20;;
15246;SDS011;7726;48.820;9.248;2022-12-19T09:08:44;19.20;;;12.17;;
15246;SDS011;7726;48.820;9.248;2022-12-19T09:11:13;16.93;;;11.97;;
15246;SDS011;7726;48.820;9.248;2022-12-19T09:13:40;18.93;;;12.33;;
15246;SDS011;7726;48.820;9.248;2022-12-19T09:16:10;16.90;;;11.60;;
15246;SDS011;7726;48.820;9.248;2022-12-19T09:18:38;18.53;;;11.27;;
15246;SDS011;7726;48.820;9.248;2022-12-19T09:21:07;17.20;;;10.83;;
15246;SDS011;7726;48.820;9.248;2022-12-19T09:23:34;16.70;;;10.70;;
15246;SDS011;7726;48.820;9.248;2022-12-19T09:26:02;14.67;;;10.27;;
15246;SDS011;7726;48.820;9.248;2022-12-19T09:28:31;17.07;;;11.10;;
15246;SDS011;7726;48.820;9.248;2022-12-19T09:30:59;16.13;;;10.87;;
15246;SDS011;7726;48.820;9.248;2022-12-19T09:33:26;16.57;;;10.03;;
15246;SDS011;7726;48.820;9.248;2022-12-19T09:35:54;15.20;;;10.57;;
15246;SDS011;7726;48.820;9.248;2022-12-19T09:38:22;14.83;;;10.33;;
15246;SDS011;7726;48.820;9.248;2022-12-19T09:41:03;17.07;;;11.43;;
15246;SDS011;7726;48.820;9.248;2022-12-19T09:43:36;17.07;;;10.83;;
15246;SDS011;7726;48.820;9.248;2022-12-19T09:46:12;17.27;;;10.87;;
15246;SDS011;7726;48.820;9.248;2022-12-19T09:48:41;16.77;;;11.00;;
15246;SDS011;7726;48.820;9.248;2022-12-19T09:51:10;15.93;;;10.67;;
15246;SDS011;7726;48.820;9.248;2022-12-19T09:53:41;16.67;;;11.73;;
15246;SDS011;7726;48.820;9.248;2022-12-19T09:56:09;20.77;;;12.33;;
15246;SDS011;7726;48.820;9.248;2022-12-19T09:58:40;14.30;;;11.07;;
15246;SDS011;7726;48.820;9.248;2022-12-19T10:01:12;16.97;;;11.50;;
15246;SDS011;7726;48.820;9.248;2022-12-19T10:03:42;16.30;;;11.53;;
15246;SDS011;7726;48.820;9.248;2022-12-19T10:06:12;17.23;;;11.70;;
15246;SDS011;7726;48.820;9.248;2022-12-19T10:08:40;16.13;;;10.83;;
15246;SDS011;7726;48.820;9.248;2022-12-19T10:11:09;15.43;;;10.03;;
15246;SDS011;7726;48.820;9.248;2022-12-19T10:13:44;15.27;;;10.63;;
15246;SDS011;7726;48.820;9.248;2022-12-19T10:16:15;16.37;;;10.93;;
15246;SDS011;7726;48.820;9.248;2022-12-19T10:18:47;15.80;;;10.17;;
15246;SDS011;7726;48.820;9.248;2022-12-19T10:21:20;16.10;;;10.27;;
15246;SDS011;7726;48.820;9.248;2022-12-19T10:23:54;16.47;;;10.83;;
15246;SDS011;7726;48.820;9.248;2022-12-19T10:26:25;15.50;;;10.50;;
15246;SDS011;7726;48.820;9.248;2022-12-19T10:29:01;15.13;;;10.63;;
15246;SDS011;7726;48.820;9.248;2022-12-19T10:31:35;13.60;;;10.03;;
15246;SDS011;7726;48.820;9.248;2022-12-19T10:34:05;17.00;;;10.33;;
15246;SDS011;7726;48.820;9.248;2022-12-19T10:36:39;15.50;;;9.90;;
15246;SDS011;7726;48.820;9.248;2022-12-19T10:39:11;14.17;;;10.37;;
15246;SDS011;7726;48.820;9.248;2022-12-19T10:41:40;13.73;;;9.97;;
15246;SDS011;7726;48.820;9.248;2022-12-19T10:44:10;15.30;;;9.77;;
15246;SDS011;7726;48.820;9.248;2022-12-19T10:46:40;12.47;;;9.43;;
15246;SDS011;7726;48.820;9.248;2022-12-19T10:49:10;16.70;;;9.70;;
15246;SDS011;7726;48.820;9.248;2022-12-19T10:51:38;15.57;;;10.43;;
15246;SDS011;7726;48.820;9.248;2022-12-19T10:54:06;14.47;;;9.77;;
15246;SDS011;7726;48.820;9.248;2022-12-19T10:56:33;14.60;;;9.60;;
15246;SDS011;7726;48.820;9.248;2022-12-19T10:59:01;14.93;;;10.03;;
15246;SDS011;7726;48.820;9.248;2022-12-19T11:01:30;14.27;;;10.00;;
15246;SDS011;7726;48.820;9.248;2022-12-19T11:04:12;15.53;;;10.87;;
15246;SDS011;7726;48.820;9.248;2022-12-19T11:06:42;16.20;;;10.27;;
15246;SDS011;7726;48.820;9.248;2022-12-19T11:12:05;15.17;;;10.30;;
15246;SDS011;7726;48.820;9.248;2022-12-19T11:14:37;15.60;;;10.43;;
15246;SDS011;7726;48.820;9.248;2022-12-19T11:17:11;13.80;;;9.73;;
15246;SDS011;7726;48.820;9.248;2022-12-19T11:19:48;14.30;;;10.27;;
15246;SDS011;7726;48.820;9.248;2022-12-19T11:22:18;15.07;;;10.37;;
15246;SDS011;7726;48.820;9.248;2022-12-19T11:24:48;17.00;;;10.73;;
15246;SDS011;7726;48.820;9.248;2022-12-19T11:27:29;14.90;;;10.80;;
15246;SDS011;7726;48.820;9.248;2022-12-19T11:29:56;16.23;;;10.40;;
15246;SDS011;7726;48.820;9.248;2022-12-19T11:32:27;16.70;;;11.27;;
15246;SDS011;7726;48.820;9.248;2022-12-19T11:34:59;16.47;;;10.73;;
15246;SDS011;7726;48.820;9.248;2022-12-19T11:37:26;17.23;;;11.40;;
15246;SDS011;7726;48.820;9.248;2022-12-19T11:40:01;17.80;;;11.37;;
15246;SDS011;7726;48.820;9.248;2022-12-19T11:42:29;17.83;;;12.27;;
15246;SDS011;7726;48.820;9.248;2022-12-19T11:44:59;19.03;;;11.93;;
15246;SDS011;7726;48.820;9.248;2022-12-19T11:47:32;16.47;;;11.83;;
15246;SDS011;7726;48.820;9.248;2022-12-19T11:50:02;16.53;;;11.97;;
15246;SDS011;7726;48.820;9.248;2022-12-19T11:52:35;19.27;;;11.90;;
15246;SDS011;7726;48.820;9.248;2022-12-19T11:55:09;15.73;;;11.13;;
15246;SDS011;7726;48.820;9.248;2022-12-19T11:57:40;14.07;;;10.60;;
15246;SDS011;7726;48.820;9.248;2022-12-19T12:00:10;17.50;;;12.37;;
15246;SDS011;7726;48.820;9.248;2022-12-19T12:02:46;17.03;;;11.87;;
15246;SDS011;7726;48.820;9.248;2022-12-19T12:05:27;17.27;;;11.50;;
15246;SDS011;7726;48.820;9.248;2022-12-19T12:10:53;15.83;;;10.50;;
15246;SDS011;7726;48.820;9.248;2022-12-19T12:13:22;14.10;;;10.67;;
15246;SDS011;7726;48.820;9.248;2022-12-19T12:15:52;15.43;;;10.97;;
15246;SDS011;7726;48.820;9.248;2022-12-19T12:18:28;15.83;;;11.20;;
15246;SDS011;7726;48.820;9.248;2022-12-19T12:21:03;16.47;;;11.13;;
15246;SDS011;7726;48.820;9.248;2022-12-19T12:23:35;15.73;;;11.40;;
15246;SDS011;7726;48.820;9.248;2022-12-19T12:26:07;18.30;;;11.90;;
15246;SDS011;7726;48.820;9.248;2022-12-19T12:28:40;18.23;;;11.83;;
15246;SDS011;7726;48.820;9.248;2022-12-19T12:31:11;19.80;;;13.20;;
15246;SDS011;7726;48.820;9.248;2022-12-19T12:33:45;16.37;;;11.83;;
15246;SDS011;7726;48.820;9.248;2022-12-19T12:36:18;15.93;;;11.30;;
15246;SDS011;7726;48.820;9.248;2022-12-19T12:38:52;16.33;;;11.23;;
15246;SDS011;7726;48.820;9.248;2022-12-19T12:41:26;15.50;;;11.50;;
15246;SDS011;7726;48.820;9.248;2022-12-19T12:44:07;17.37;;;11.73;;
15246;SDS011;7726;48.820;9.248;2022-12-19T12:46:36;17.20;;;11.87;;
15246;SDS011;7726;48.820;9.248;2022-12-19T12:49:10;15.90;;;11.70;;
15246;SDS011;7726;48.820;9.248;2022-12-19T12:51:40;15.70;;;11.73;;
15246;SDS011;7726;48.820;9.248;2022-12-19T12:54:09;17.60;;;12.03;;
15246;SDS011;7726;48.820;9.248;2022-12-19T12:56:38;15.20;;;11.43;;
15246;SDS011;7726;48.820;9.248;2022-12-19T12:59:17;17.53;;;12.27;;
15246;SDS011;7726;48.820;9.248;2022-12-19T13:01:47;17.60;;;12.23;;
15246;SDS011;7726;48.820;9.248;2022-12-19T13:04:19;19.60;;;13.13;;
15246;SDS011;7726;48.820;9.248;2022-12-19T13:07:01;19.67;;;13.10;;
15246;SDS011;7726;48.820;9.248;2022-12-19T13:09:29;22.20;;;13.23;;
15246;SDS011;7726;48.820;9.248;2022-12-19T13:11:59;20.07;;;13.27;;
15246;SDS011;7726;48.820;9.248;2022-12-19T13:14:47;17.90;;;13.07;;
15246;SDS011;7726;48.820;9.248;2022-12-19T13:17:18;21.53;;;13.77;;
15246;SDS011;7726;48.820;9.248;2022-12-19T13:19:53;17.87;;;12.33;;
15246;SDS011;7726;48.820;9.248;2022-12-19T13:22:22;18.90;;;13.17;;
15246;SDS011;7726;48.820;9.248;2022-12-19T13:25:10;20.90;;;13.87;;
15246;SDS011;7726;48.820;9.248;2022-12-19T13:27:54;21.00;;;13.40;;
15246;SDS011;7726;48.820;9.248;2022-12-19T13:30:22;18.33;;;13.53;;
15246;SDS011;7726;48.820;9.248;2022-12-19T13:33:05;17.67;;;13.17;;
15246;SDS011;7726;48.820;9.248;2022-12-19T13:35:35;19.27;;;12.13;;
15246;SDS011;7726;48.820;9.248;2022-12-19T13:38:05;20.60;;;13.40;;
15246;SDS011;7726;48.820;9.248;2022-12-19T13:40:53;18.43;;;13.07;;
15246;SDS011;7726;48.820;9.248;2022-12-19T13:43:22;18.23;;;11.93;;
15246;SDS011;7726;48.820;9.248;2022-12-19T13:46:17;17.43;;;12.07;;
15246;SDS011;7726;48.820;9.248;2022-12-19T13:48:47;16.30;;;12.10;;
15246;SDS011;7726;48.820;9.248;2022-12-19T13:51:16;17.03;;;12.53;;
15246;SDS011;7726;48.820;9.248;2022-12-19T13:53:43;19.47;;;12.73;;
15246;SDS011;7726;48.820;9.248;2022-12-19T13:56:12;19.07;;;13.50;;
15246;SDS011;7726;48.820;9.248;2022-12-19T13:58:42;18.07;;;13.53;;
15246;SDS011;7726;48.820;9.248;2022-12-19T14:01:13;19.23;;;13.17;;
15246;SDS011;7726;48.820;9.248;2022-12-19T14:03:42;23.27;;;13.93;;
15246;SDS011;7726;48.820;9.248;2022-12-19T14:06:14;20.77;;;13.47;;
15246;SDS011;7726;48.820;9.248;2022-12-19T14:08:44;18.00;;;12.67;;
15246;SDS011;7726;48.820;9.248;2022-12-19T14:11:12;18.93;;;13.80;;
15246;SDS011;7726;48.820;9.248;2022-12-19T14:13:42;17.13;;;12.47;;
15246;SDS011;7726;48.820;9.248;2022-12-19T14:16:27;18.37;;;12.33;;
15246;SDS011;7726;48.820;9.248;2022-12-19T14:18:54;18.70;;;13.10;;
15246;SDS011;7726;48.820;9.248;2022-12-19T14:21:24;17.50;;;12.63;;
15246;SDS011;7726;48.820;9.248;2022-12-19T14:23:53;15.70;;;12.00;;
15246;SDS011;7726;48.820;9.248;2022-12-19T14:26:33;17.30;;;11.57;;
15246;SDS011;7726;48.820;9.248;2022-12-19T14:29:01;18.27;;;11.90;;
15246;SDS011;7726;48.820;9.248;2022-12-19T14:31:30;19.30;;;12.70;;
15246;SDS011;7726;48.820;9.248;2022-12-19T14:33:58;16.87;;;12.17;;
15246;SDS011;7726;48.820;9.248;2022-12-19T14:36:25;18.33;;;12.10;;
15246;SDS011;7726;48.820;9.248;2022-12-19T14:38:55;19.27;;;13.87;;
15246;SDS011;7726;48.820;9.248;2022-12-19T14:41:31;18.73;;;13.57;;
15246;SDS011;7726;48.820;9.248;2022-12-19T14:44:18;19.00;;;11.87;;
15246;SDS011;7726;48.820;9.248;2022-12-19T14:46:56;15.33;;;11.00;;
15246;SDS011;7726;48.820;9.248;2022-12-19T14:49:25;15.57;;;11.23;;
15246;SDS011;7726;48.820;9.248;2022-12-19T14:51:52;16.07;;;10.67;;
15246;SDS011;7726;48.820;9.248;2022-12-19T14:54:21;15.87;;;11.50;;
15246;SDS011;7726;48.820;9.248;2022-12-19T14:56:49;13.37;;;9.77;;